sensor_id;sensor_type;location;lat;lon;timestamp;temperature;humidity
19164;DHT22;9714;51.208;4.242;2022-12-26T00:02:11;11.30;99.90
19164;DHT22;9714;51.208;4.242;2022-12-26T00:04:38;11.40;99.90
19164;DHT22;9714;51.208;4.242;2022-12-26T00:07:07;11.40;99.90
19164;DHT22;9714;51.208;4.242;2022-12-26T00:09:34;11.50;99.90
19164;DHT22;9714;51.208;4.242;2022-12-26T00:12:02;11.40;99.90
19164;DHT22;9714;51.208;4.242;2022-12-26T00:14:29;11.40;99.90
19164;DHT22;9714;51.208;4.242;2022-12-26T00:16:56;11.50;99.90
19164;DHT22;9714;51.208;4.242;2022-12-26T00:19:23;11.40;99.90
19164;DHT22;9714;51.208;4.242;2022-12-26T00:21:50;11.60;99.90
19164;DHT22;9714;51.208;4.242;2022-12-26T00:24:18;11.40;99.90
19164;DHT22;9714;51.208;4.242;2022-12-26T00:26:45;11.40;99.90
19164;DHT22;9714;51.208;4.242;2022-12-26T00:29:12;11.40;99.90
19164;DHT22;9714;51.208;4.242;2022-12-26T00:31:39;11.50;99.90
19164;DHT22;9714;51.208;4.242;2022-12-26T00:34:06;11.50;99.90
19164;DHT22;9714;51.208;4.242;2022-12-26T00:36:39;11.50;99.90
19164;DHT22;9714;51.208;4.242;2022-12-26T00:39:06;11.50;99.90
19164;DHT22;9714;51.208;4.242;2022-12-26T00:41:36;11.40;99.90
19164;DHT22;9714;51.208;4.242;2022-12-26T00:44:03;11.50;99.90
19164;DHT22;9714;51.208;4.242;2022-12-26T00:46:30;11.50;99.90
19164;DHT22;9714;51.208;4.242;2022-12-26T00:48:57;11.30;99.90
19164;DHT22;9714;51.208;4.242;2022-12-26T00:51:30;11.40;99.90
19164;DHT22;9714;51.208;4.242;2022-12-26T00:53:57;11.40;99.90
19164;DHT22;9714;51.208;4.242;2022-12-26T00:56:24;11.40;99.90
19164;DHT22;9714;51.208;4.242;2022-12-26T00:58:53;11.40;99.90
19164;DHT22;9714;51.208;4.242;2022-12-26T01:01:21;11.30;99.90
19164;DHT22;9714;51.208;4.242;2022-12-26T01:03:50;11.40;99.90
19164;DHT22;9714;51.208;4.242;2022-12-26T01:06:17;11.50;99.90
19164;DHT22;9714;51.208;4.242;2022-12-26T01:08:44;11.50;99.90
19164;DHT22;9714;51.208;4.242;2022-12-26T01:11:15;11.40;99.90
19164;DHT22;9714;51.208;4.242;2022-12-26T01:14:04;11.40;99.90
19164;DHT22;9714;51.208;4.242;2022-12-26T01:16:31;11.30;99.90
19164;DHT22;9714;51.208;4.242;2022-12-26T01:18:59;11.40;99.90
19164;DHT22;9714;51.208;4.242;2022-12-26T01:21:28;11.30;99.90
19164;DHT22;9714;51.208;4.242;2022-12-26T01:23:55;11.40;99.90
19164;DHT22;9714;51.208;4.242;2022-12-26T01:26:22;11.40;99.90
19164;DHT22;9714;51.208;4.242;2022-12-26T01:28:50;11.50;99.90
19164;DHT22;9714;51.208;4.242;2022-12-26T01:31:21;11.40;99.90
19164;DHT22;9714;51.208;4.242;2022-12-26T01:33:48;11.30;99.90
19164;DHT22;9714;51.208;4.242;2022-12-26T01:36:16;11.40;99.90
19164;DHT22;9714;51.208;4.242;2022-12-26T01:38:44;11.50;99.90
19164;DHT22;9714;51.208;4.242;2022-12-26T01:41:12;11.30;99.90
19164;DHT22;9714;51.208;4.242;2022-12-26T01:43:52;11.40;99.90
19164;DHT22;9714;51.208;4.242;2022-12-26T01:46:23;11.40;99.90
19164;DHT22;9714;51.208;4.242;2022-12-26T01:48:52;11.20;99.90
19164;DHT22;9714;51.208;4.242;2022-12-26T01:51:23;11.10;99.90
19164;DHT22;9714;51.208;4.242;2022-12-26T01:53:53;11.10;99.90
19164;DHT22;9714;51.208;4.242;2022-12-26T01:56:24;11.20;99.90
19164;DHT22;9714;51.208;4.242;2022-12-26T01:58:59;11.10;99.90
19164;DHT22;9714;51.208;4.242;2022-12-26T02:01:31;11.00;99.90
19164;DHT22;9714;51.208;4.242;2022-12-26T02:04:01;11.00;99.90
19164;DHT22;9714;51.208;4.242;2022-12-26T02:06:51;10.90;99.90
19164;DHT22;9714;51.208;4.242;2022-12-26T02:09:18;10.90;99.90
19164;DHT22;9714;51.208;4.242;2022-12-26T02:11:51;10.90;99.90
19164;DHT22;9714;51.208;4.242;2022-12-26T02:14:20;10.90;99.90
19164;DHT22;9714;51.208;4.242;2022-12-26T02:16:50;10.90;99.90
19164;DHT22;9714;51.208;4.242;2022-12-26T02:19:25;10.90;99.90
19164;DHT22;9714;51.208;4.242;2022-12-26T02:25:11;10.70;99.90
19164;DHT22;9714;51.208;4.242;2022-12-26T02:28:11;10.80;99.90
19164;DHT22;9714;51.208;4.242;2022-12-26T02:30:44;10.70;99.90
19164;DHT22;9714;51.208;4.242;2022-12-26T02:33:38;10.80;99.90
19164;DHT22;9714;51.208;4.242;2022-12-26T02:39:21;10.50;99.90
19164;DHT22;9714;51.208;4.242;2022-12-26T02:41:56;10.50;99.90
19164;DHT22;9714;51.208;4.242;2022-12-26T02:44:39;10.60;99.90
19164;DHT22;9714;51.208;4.242;2022-12-26T02:47:34;10.50;99.90
19164;DHT22;9714;51.208;4.242;2022-12-26T02:50:07;10.50;99.90
19164;DHT22;9714;51.208;4.242;2022-12-26T02:53:03;10.50;99.90
19164;DHT22;9714;51.208;4.242;2022-12-26T02:55:52;10.50;99.90
19164;DHT22;9714;51.208;4.242;2022-12-26T02:58:44;10.40;99.90
19164;DHT22;9714;51.208;4.242;2022-12-26T03:01:37;10.20;99.90
19164;DHT22;9714;51.208;4.242;2022-12-26T03:04:26;10.20;99.90
19164;DHT22;9714;51.208;4.242;2022-12-26T03:07:17;10.30;99.90
19164;DHT22;9714;51.208;4.242;2022-12-26T03:10:13;10.40;99.90
19164;DHT22;9714;51.208;4.242;2022-12-26T03:13:01;10.40;99.90
19164;DHT22;9714;51.208;4.242;2022-12-26T03:15:39;10.30;99.90
19164;DHT22;9714;51.208;4.242;2022-12-26T03:18:22;10.30;99.90
19164;DHT22;9714;51.208;4.242;2022-12-26T03:20:51;10.20;99.90
19164;DHT22;9714;51.208;4.242;2022-12-26T03:23:19;10.30;99.90
19164;DHT22;9714;51.208;4.242;2022-12-26T03:25:52;10.30;99.90
19164;DHT22;9714;51.208;4.242;2022-12-26T03:28:37;10.30;99.90
19164;DHT22;9714;51.208;4.242;2022-12-26T03:31:09;10.30;99.90
19164;DHT22;9714;51.208;4.242;2022-12-26T03:33:37;10.40;99.90
19164;DHT22;9714;51.208;4.242;2022-12-26T03:36:45;10.40;99.90
19164;DHT22;9714;51.208;4.242;2022-12-26T03:39:22;10.30;99.90
19164;DHT22;9714;51.208;4.242;2022-12-26T03:42:21;10.20;99.90
19164;DHT22;9714;51.208;4.242;2022-12-26T03:45:26;10.30;99.90
19164;DHT22;9714;51.208;4.242;2022-12-26T03:48:19;10.30;99.90
19164;DHT22;9714;51.208;4.242;2022-12-26T03:51:08;10.30;99.90
19164;DHT22;9714;51.208;4.242;2022-12-26T03:53:59;10.20;99.90
19164;DHT22;9714;51.208;4.242;2022-12-26T03:56:49;10.20;99.90
19164;DHT22;9714;51.208;4.242;2022-12-26T03:59:40;10.10;99.90
19164;DHT22;9714;51.208;4.242;2022-12-26T04:02:28;10.10;99.90
19164;DHT22;9714;51.208;4.242;2022-12-26T04:05:15;10.10;99.90
19164;DHT22;9714;51.208;4.242;2022-12-26T04:08:06;10.20;99.90
19164;DHT22;9714;51.208;4.242;2022-12-26T04:10:55;10.20;99.90
19164;DHT22;9714;51.208;4.242;2022-12-26T04:13:48;10.30;99.90
19164;DHT22;9714;51.208;4.242;2022-12-26T04:16:38;10.20;99.90
19164;DHT22;9714;51.208;4.242;2022-12-26T04:19:47;10.30;99.90
19164;DHT22;9714;51.208;4.242;2022-12-26T04:22:21;10.30;99.90
19164;DHT22;9714;51.208;4.242;2022-12-26T04:25:10;10.20;99.90
19164;DHT22;9714;51.208;4.242;2022-12-26T04:27:58;10.30;99.90
19164;DHT22;9714;51.208;4.242;2022-12-26T04:30:48;10.40;99.90
19164;DHT22;9714;51.208;4.242;2022-12-26T04:33:36;10.50;99.90
19164;DHT22;9714;51.208;4.242;2022-12-26T04:36:28;10.40;99.90
19164;DHT22;9714;51.208;4.242;2022-12-26T04:39:16;10.40;99.90
19164;DHT22;9714;51.208;4.242;2022-12-26T04:42:02;10.40;99.90
19164;DHT22;9714;51.208;4.242;2022-12-26T04:44:49;10.50;99.90
19164;DHT22;9714;51.208;4.242;2022-12-26T04:47:16;10.50;99.90
19164;DHT22;9714;51.208;4.242;2022-12-26T04:49:44;10.50;99.90
19164;DHT22;9714;51.208;4.242;2022-12-26T04:52:29;10.50;99.90
19164;DHT22;9714;51.208;4.242;2022-12-26T04:55:12;10.60;99.90
19164;DHT22;9714;51.208;4.242;2022-12-26T04:57:39;10.60;99.90
19164;DHT22;9714;51.208;4.242;2022-12-26T05:00:08;10.60;99.90
19164;DHT22;9714;51.208;4.242;2022-12-26T05:02:36;10.60;99.90
19164;DHT22;9714;51.208;4.242;2022-12-26T05:05:20;10.60;99.90
19164;DHT22;9714;51.208;4.242;2022-12-26T05:08:06;10.70;99.90
19164;DHT22;9714;51.208;4.242;2022-12-26T05:10:54;10.70;99.90
19164;DHT22;9714;51.208;4.242;2022-12-26T05:13:21;10.70;99.90
19164;DHT22;9714;51.208;4.242;2022-12-26T05:15:49;10.70;99.90
19164;DHT22;9714;51.208;4.242;2022-12-26T05:18:34;10.70;99.90
19164;DHT22;9714;51.208;4.242;2022-12-26T05:21:20;10.70;99.90
19164;DHT22;9714;51.208;4.242;2022-12-26T05:24:08;10.60;99.90
19164;DHT22;9714;51.208;4.242;2022-12-26T05:26:52;10.60;99.90
19164;DHT22;9714;51.208;4.242;2022-12-26T05:29:37;10.70;99.90
19164;DHT22;9714;51.208;4.242;2022-12-26T05:32:05;10.70;99.90
19164;DHT22;9714;51.208;4.242;2022-12-26T05:34:32;10.70;99.90
19164;DHT22;9714;51.208;4.242;2022-12-26T05:36:59;10.70;99.90
19164;DHT22;9714;51.208;4.242;2022-12-26T05:39:26;10.80;99.90
19164;DHT22;9714;51.208;4.242;2022-12-26T05:41:53;10.70;99.90
19164;DHT22;9714;51.208;4.242;2022-12-26T05:44:20;10.70;99.90
19164;DHT22;9714;51.208;4.242;2022-12-26T05:46:47;10.60;99.90
19164;DHT22;9714;51.208;4.242;2022-12-26T05:49:16;10.60;99.90
19164;DHT22;9714;51.208;4.242;2022-12-26T05:51:43;10.50;99.90
19164;DHT22;9714;51.208;4.242;2022-12-26T05:54:10;10.50;99.90
19164;DHT22;9714;51.208;4.242;2022-12-26T05:56:37;10.50;99.90
19164;DHT22;9714;51.208;4.242;2022-12-26T05:59:04;10.50;99.90
19164;DHT22;9714;51.208;4.242;2022-12-26T06:01:31;10.50;99.90
19164;DHT22;9714;51.208;4.242;2022-12-26T06:03:59;10.50;99.90
19164;DHT22;9714;51.208;4.242;2022-12-26T06:06:27;10.60;99.90
19164;DHT22;9714;51.208;4.242;2022-12-26T06:08:55;10.50;99.90
19164;DHT22;9714;51.208;4.242;2022-12-26T06:11:24;10.40;99.90
19164;DHT22;9714;51.208;4.242;2022-12-26T06:13:51;10.40;99.90
19164;DHT22;9714;51.208;4.242;2022-12-26T06:16:18;10.50;99.90
19164;DHT22;9714;51.208;4.242;2022-12-26T06:18:46;10.50;99.90
19164;DHT22;9714;51.208;4.242;2022-12-26T06:21:17;10.50;99.90
19164;DHT22;9714;51.208;4.242;2022-12-26T06:23:46;10.40;99.90
19164;DHT22;9714;51.208;4.242;2022-12-26T06:26:14;10.40;99.90
19164;DHT22;9714;51.208;4.242;2022-12-26T06:28:42;10.50;99.90
19164;DHT22;9714;51.208;4.242;2022-12-26T06:31:11;10.50;99.90
19164;DHT22;9714;51.208;4.242;2022-12-26T06:33:40;10.60;99.90
19164;DHT22;9714;51.208;4.242;2022-12-26T06:36:09;10.50;99.90
19164;DHT22;9714;51.208;4.242;2022-12-26T06:38:37;10.50;99.90
19164;DHT22;9714;51.208;4.242;2022-12-26T06:41:06;10.60;99.90
19164;DHT22;9714;51.208;4.242;2022-12-26T06:43:33;10.60;99.90
19164;DHT22;9714;51.208;4.242;2022-12-26T06:46:02;10.60;99.90
19164;DHT22;9714;51.208;4.242;2022-12-26T06:48:31;10.60;99.90
19164;DHT22;9714;51.208;4.242;2022-12-26T06:51:04;10.50;99.90
19164;DHT22;9714;51.208;4.242;2022-12-26T06:53:33;10.50;99.90
19164;DHT22;9714;51.208;4.242;2022-12-26T06:56:07;10.40;99.90
19164;DHT22;9714;51.208;4.242;2022-12-26T06:58:34;10.50;99.90
19164;DHT22;9714;51.208;4.242;2022-12-26T07:01:05;10.60;99.90
19164;DHT22;9714;51.208;4.242;2022-12-26T07:03:33;10.70;99.90
19164;DHT22;9714;51.208;4.242;2022-12-26T07:06:02;10.70;99.90
19164;DHT22;9714;51.208;4.242;2022-12-26T07:08:29;10.70;99.90
19164;DHT22;9714;51.208;4.242;2022-12-26T07:10:56;10.70;99.90
19164;DHT22;9714;51.208;4.242;2022-12-26T07:13:25;10.60;99.90
19164;DHT22;9714;51.208;4.242;2022-12-26T07:15:52;10.60;99.90
19164;DHT22;9714;51.208;4.242;2022-12-26T07:18:19;10.70;99.90
19164;DHT22;9714;51.208;4.242;2022-12-26T07:20:46;10.70;99.90
19164;DHT22;9714;51.208;4.242;2022-12-26T07:23:13;10.70;99.90
19164;DHT22;9714;51.208;4.242;2022-12-26T07:25:40;10.70;99.90
19164;DHT22;9714;51.208;4.242;2022-12-26T07:28:07;10.80;99.90
19164;DHT22;9714;51.208;4.242;2022-12-26T07:30:35;10.80;99.90
19164;DHT22;9714;51.208;4.242;2022-12-26T07:33:03;10.80;99.90
19164;DHT22;9714;51.208;4.242;2022-12-26T07:35:30;10.80;99.90
19164;DHT22;9714;51.208;4.242;2022-12-26T07:37:58;10.70;99.90
19164;DHT22;9714;51.208;4.242;2022-12-26T07:40:25;10.70;99.90
19164;DHT22;9714;51.208;4.242;2022-12-26T07:42:53;10.70;99.90
19164;DHT22;9714;51.208;4.242;2022-12-26T07:45:21;10.80;99.90
19164;DHT22;9714;51.208;4.242;2022-12-26T07:47:53;10.80;99.90
19164;DHT22;9714;51.208;4.242;2022-12-26T07:50:21;10.80;99.90
19164;DHT22;9714;51.208;4.242;2022-12-26T07:52:48;10.80;99.90
19164;DHT22;9714;51.208;4.242;2022-12-26T07:55:15;10.80;99.90
19164;DHT22;9714;51.208;4.242;2022-12-26T07:57:42;10.90;99.90
19164;DHT22;9714;51.208;4.242;2022-12-26T08:00:10;10.90;99.90
19164;DHT22;9714;51.208;4.242;2022-12-26T08:02:37;10.90;99.90
19164;DHT22;9714;51.208;4.242;2022-12-26T08:05:08;10.80;99.90
19164;DHT22;9714;51.208;4.242;2022-12-26T08:07:36;10.80;99.90
19164;DHT22;9714;51.208;4.242;2022-12-26T08:10:04;10.90;99.90
19164;DHT22;9714;51.208;4.242;2022-12-26T08:12:31;10.80;99.90
19164;DHT22;9714;51.208;4.242;2022-12-26T08:14:59;10.90;99.90
19164;DHT22;9714;51.208;4.242;2022-12-26T08:17:26;10.90;99.90
19164;DHT22;9714;51.208;4.242;2022-12-26T08:19:56;10.80;99.90
19164;DHT22;9714;51.208;4.242;2022-12-26T08:22:24;10.80;99.90
19164;DHT22;9714;51.208;4.242;2022-12-26T08:24:51;10.90;99.90
19164;DHT22;9714;51.208;4.242;2022-12-26T08:27:19;11.00;99.90
19164;DHT22;9714;51.208;4.242;2022-12-26T08:29:46;11.00;99.90
19164;DHT22;9714;51.208;4.242;2022-12-26T08:32:13;11.20;99.90
19164;DHT22;9714;51.208;4.242;2022-12-26T08:34:40;11.20;99.90
19164;DHT22;9714;51.208;4.242;2022-12-26T08:37:08;11.30;99.90
19164;DHT22;9714;51.208;4.242;2022-12-26T08:39:36;11.30;99.90
19164;DHT22;9714;51.208;4.242;2022-12-26T08:42:06;11.30;99.90
19164;DHT22;9714;51.208;4.242;2022-12-26T08:44:33;11.40;99.90
19164;DHT22;9714;51.208;4.242;2022-12-26T08:47:00;11.40;99.90
19164;DHT22;9714;51.208;4.242;2022-12-26T08:49:27;11.40;99.90
19164;DHT22;9714;51.208;4.242;2022-12-26T08:51:55;11.40;99.90
19164;DHT22;9714;51.208;4.242;2022-12-26T08:54:23;11.50;99.90
19164;DHT22;9714;51.208;4.242;2022-12-26T08:56:52;11.60;99.90
19164;DHT22;9714;51.208;4.242;2022-12-26T08:59:20;11.70;99.90
19164;DHT22;9714;51.208;4.242;2022-12-26T09:01:48;11.60;99.90
19164;DHT22;9714;51.208;4.242;2022-12-26T09:04:15;11.50;99.90
19164;DHT22;9714;51.208;4.242;2022-12-26T09:06:44;11.50;99.90
19164;DHT22;9714;51.208;4.242;2022-12-26T09:09:12;11.50;99.90
19164;DHT22;9714;51.208;4.242;2022-12-26T09:11:40;11.60;99.90
19164;DHT22;9714;51.208;4.242;2022-12-26T09:14:09;11.60;99.90
19164;DHT22;9714;51.208;4.242;2022-12-26T09:16:39;11.40;99.90
19164;DHT22;9714;51.208;4.242;2022-12-26T09:19:10;11.40;99.90
19164;DHT22;9714;51.208;4.242;2022-12-26T09:21:39;11.40;99.90
19164;DHT22;9714;51.208;4.242;2022-12-26T09:24:10;11.30;99.90
19164;DHT22;9714;51.208;4.242;2022-12-26T09:26:38;11.30;99.90
19164;DHT22;9714;51.208;4.242;2022-12-26T09:29:07;11.40;99.90
19164;DHT22;9714;51.208;4.242;2022-12-26T09:31:39;11.30;99.90
19164;DHT22;9714;51.208;4.242;2022-12-26T09:34:07;11.40;99.90
19164;DHT22;9714;51.208;4.242;2022-12-26T09:36:35;11.40;99.90
19164;DHT22;9714;51.208;4.242;2022-12-26T09:39:03;11.50;99.90
19164;DHT22;9714;51.208;4.242;2022-12-26T09:41:57;11.60;99.90
19164;DHT22;9714;51.208;4.242;2022-12-26T09:44:40;11.70;99.90
19164;DHT22;9714;51.208;4.242;2022-12-26T09:47:19;11.70;99.90
19164;DHT22;9714;51.208;4.242;2022-12-26T09:49:55;11.80;99.90
19164;DHT22;9714;51.208;4.242;2022-12-26T09:52:31;11.80;99.90
19164;DHT22;9714;51.208;4.242;2022-12-26T09:55:05;11.60;99.90
19164;DHT22;9714;51.208;4.242;2022-12-26T09:57:41;11.10;99.90
19164;DHT22;9714;51.208;4.242;2022-12-26T10:00:16;10.90;99.90
19164;DHT22;9714;51.208;4.242;2022-12-26T10:02:46;10.90;99.90
19164;DHT22;9714;51.208;4.242;2022-12-26T10:05:15;10.80;99.90
19164;DHT22;9714;51.208;4.242;2022-12-26T10:07:47;10.70;99.90
19164;DHT22;9714;51.208;4.242;2022-12-26T10:10:19;10.70;99.90
19164;DHT22;9714;51.208;4.242;2022-12-26T10:12:55;10.70;99.90
19164;DHT22;9714;51.208;4.242;2022-12-26T10:15:42;10.90;99.90
19164;DHT22;9714;51.208;4.242;2022-12-26T10:18:21;10.80;99.90
19164;DHT22;9714;51.208;4.242;2022-12-26T10:21:09;10.70;99.90
19164;DHT22;9714;51.208;4.242;2022-12-26T10:23:42;10.70;99.90
19164;DHT22;9714;51.208;4.242;2022-12-26T10:26:13;10.60;99.90
19164;DHT22;9714;51.208;4.242;2022-12-26T10:28:44;10.60;99.90
19164;DHT22;9714;51.208;4.242;2022-12-26T10:31:18;10.60;99.90
19164;DHT22;9714;51.208;4.242;2022-12-26T10:33:52;10.40;99.90
19164;DHT22;9714;51.208;4.242;2022-12-26T10:36:30;10.40;99.90
19164;DHT22;9714;51.208;4.242;2022-12-26T10:38:58;10.30;99.90
19164;DHT22;9714;51.208;4.242;2022-12-26T10:41:33;10.40;99.90
19164;DHT22;9714;51.208;4.242;2022-12-26T10:44:01;10.50;99.90
19164;DHT22;9714;51.208;4.242;2022-12-26T10:49:56;10.70;99.90
19164;DHT22;9714;51.208;4.242;2022-12-26T10:52:28;10.70;99.90
19164;DHT22;9714;51.208;4.242;2022-12-26T10:54:58;10.40;99.90
19164;DHT22;9714;51.208;4.242;2022-12-26T10:57:27;10.40;99.90
19164;DHT22;9714;51.208;4.242;2022-12-26T10:59:56;10.50;99.90
19164;DHT22;9714;51.208;4.242;2022-12-26T11:02:26;10.50;99.90
19164;DHT22;9714;51.208;4.242;2022-12-26T11:05:01;10.40;99.90
19164;DHT22;9714;51.208;4.242;2022-12-26T11:07:31;10.40;99.90
19164;DHT22;9714;51.208;4.242;2022-12-26T11:10:00;10.50;99.90
19164;DHT22;9714;51.208;4.242;2022-12-26T11:12:38;10.30;99.90
19164;DHT22;9714;51.208;4.242;2022-12-26T11:15:17;10.20;99.90
19164;DHT22;9714;51.208;4.242;2022-12-26T11:17:47;10.70;99.90
19164;DHT22;9714;51.208;4.242;2022-12-26T11:20:29;10.70;99.90
19164;DHT22;9714;51.208;4.242;2022-12-26T11:23:17;11.00;99.90
19164;DHT22;9714;51.208;4.242;2022-12-26T11:25:51;10.80;99.90
19164;DHT22;9714;51.208;4.242;2022-12-26T11:28:24;10.90;99.90
19164;DHT22;9714;51.208;4.242;2022-12-26T11:30:54;10.80;99.90
19164;DHT22;9714;51.208;4.242;2022-12-26T11:33:27;11.10;99.90
19164;DHT22;9714;51.208;4.242;2022-12-26T11:36:16;10.90;99.90
19164;DHT22;9714;51.208;4.242;2022-12-26T11:38:51;11.00;99.90
19164;DHT22;9714;51.208;4.242;2022-12-26T11:41:34;11.10;99.90
19164;DHT22;9714;51.208;4.242;2022-12-26T11:44:32;11.10;99.90
19164;DHT22;9714;51.208;4.242;2022-12-26T11:47:07;10.90;99.90
19164;DHT22;9714;51.208;4.242;2022-12-26T11:49:38;10.90;99.90
19164;DHT22;9714;51.208;4.242;2022-12-26T11:52:33;10.80;99.90
19164;DHT22;9714;51.208;4.242;2022-12-26T11:55:29;10.70;99.90
19164;DHT22;9714;51.208;4.242;2022-12-26T11:57:59;10.60;99.90
19164;DHT22;9714;51.208;4.242;2022-12-26T12:00:32;10.40;99.90
19164;DHT22;9714;51.208;4.242;2022-12-26T12:03:01;10.50;99.90
19164;DHT22;9714;51.208;4.242;2022-12-26T12:05:38;10.50;99.90
19164;DHT22;9714;51.208;4.242;2022-12-26T12:08:23;10.40;99.90
19164;DHT22;9714;51.208;4.242;2022-12-26T12:11:08;10.40;99.90
19164;DHT22;9714;51.208;4.242;2022-12-26T12:16:45;10.40;99.90
19164;DHT22;9714;51.208;4.242;2022-12-26T12:22:33;10.50;99.90
19164;DHT22;9714;51.208;4.242;2022-12-26T12:25:35;10.70;99.90
19164;DHT22;9714;51.208;4.242;2022-12-26T12:28:32;10.50;99.90
19164;DHT22;9714;51.208;4.242;2022-12-26T12:31:10;10.40;99.90
19164;DHT22;9714;51.208;4.242;2022-12-26T12:33:46;10.40;99.90
19164;DHT22;9714;51.208;4.242;2022-12-26T12:36:18;10.40;99.90
19164;DHT22;9714;51.208;4.242;2022-12-26T12:38:57;10.40;99.90
19164;DHT22;9714;51.208;4.242;2022-12-26T12:42:08;10.20;99.90
19164;DHT22;9714;51.208;4.242;2022-12-26T12:44:58;10.10;99.90
19164;DHT22;9714;51.208;4.242;2022-12-26T12:47:59;10.20;99.90
19164;DHT22;9714;51.208;4.242;2022-12-26T12:51:04;10.30;99.90
19164;DHT22;9714;51.208;4.242;2022-12-26T12:53:54;10.30;99.90
19164;DHT22;9714;51.208;4.242;2022-12-26T12:56:32;10.30;99.90
19164;DHT22;9714;51.208;4.242;2022-12-26T12:59:06;10.20;99.90
19164;DHT22;9714;51.208;4.242;2022-12-26T13:01:38;10.10;99.90
19164;DHT22;9714;51.208;4.242;2022-12-26T13:04:11;9.90;99.90
19164;DHT22;9714;51.208;4.242;2022-12-26T13:06:44;10.20;99.90
19164;DHT22;9714;51.208;4.242;2022-12-26T13:09:15;10.10;99.90
19164;DHT22;9714;51.208;4.242;2022-12-26T13:11:48;10.20;99.90
19164;DHT22;9714;51.208;4.242;2022-12-26T13:14:19;10.50;99.90
19164;DHT22;9714;51.208;4.242;2022-12-26T13:16:55;10.70;99.90
19164;DHT22;9714;51.208;4.242;2022-12-26T13:19:26;10.70;99.90
19164;DHT22;9714;51.208;4.242;2022-12-26T13:22:00;10.50;99.90
19164;DHT22;9714;51.208;4.242;2022-12-26T13:24:31;10.50;99.90
19164;DHT22;9714;51.208;4.242;2022-12-26T13:27:03;10.20;99.90
19164;DHT22;9714;51.208;4.242;2022-12-26T13:29:37;10.30;99.90
19164;DHT22;9714;51.208;4.242;2022-12-26T13:32:17;10.20;99.90
19164;DHT22;9714;51.208;4.242;2022-12-26T13:34:45;10.20;99.90
19164;DHT22;9714;51.208;4.242;2022-12-26T13:40:29;10.00;99.90
19164;DHT22;9714;51.208;4.242;2022-12-26T13:43:01;9.90;99.90
19164;DHT22;9714;51.208;4.242;2022-12-26T13:45:49;9.90;99.90
19164;DHT22;9714;51.208;4.242;2022-12-26T13:51:58;9.70;99.90
19164;DHT22;9714;51.208;4.242;2022-12-26T13:54:27;9.60;99.90
19164;DHT22;9714;51.208;4.242;2022-12-26T13:57:30;9.50;99.90
19164;DHT22;9714;51.208;4.242;2022-12-26T14:00:07;9.40;99.90
19164;DHT22;9714;51.208;4.242;2022-12-26T14:05:44;9.40;99.90
19164;DHT22;9714;51.208;4.242;2022-12-26T14:08:23;9.10;99.90
19164;DHT22;9714;51.208;4.242;2022-12-26T14:11:00;9.00;99.90
19164;DHT22;9714;51.208;4.242;2022-12-26T14:13:53;9.00;99.90
19164;DHT22;9714;51.208;4.242;2022-12-26T14:16:28;8.80;99.90
19164;DHT22;9714;51.208;4.242;2022-12-26T14:19:01;8.90;99.90
19164;DHT22;9714;51.208;4.242;2022-12-26T14:21:38;8.90;99.90
19164;DHT22;9714;51.208;4.242;2022-12-26T14:24:21;8.90;99.90
19164;DHT22;9714;51.208;4.242;2022-12-26T14:26:57;9.00;99.90
19164;DHT22;9714;51.208;4.242;2022-12-26T14:29:33;8.80;99.90
19164;DHT22;9714;51.208;4.242;2022-12-26T14:32:17;8.80;99.90
19164;DHT22;9714;51.208;4.242;2022-12-26T14:34:56;8.70;99.90
19164;DHT22;9714;51.208;4.242;2022-12-26T14:37:34;8.60;99.90
19164;DHT22;9714;51.208;4.242;2022-12-26T14:40:18;8.60;99.90
19164;DHT22;9714;51.208;4.242;2022-12-26T14:43:10;8.50;99.90
19164;DHT22;9714;51.208;4.242;2022-12-26T14:45:40;8.60;99.90
19164;DHT22;9714;51.208;4.242;2022-12-26T14:51:37;8.50;99.90
19164;DHT22;9714;51.208;4.242;2022-12-26T14:54:37;8.40;99.90
19164;DHT22;9714;51.208;4.242;2022-12-26T14:57:44;8.30;99.90
19164;DHT22;9714;51.208;4.242;2022-12-26T15:00:32;8.30;99.90
19164;DHT22;9714;51.208;4.242;2022-12-26T15:09:56;8.30;99.90
19164;DHT22;9714;51.208;4.242;2022-12-26T15:15:46;8.40;99.90
19164;DHT22;9714;51.208;4.242;2022-12-26T15:18:42;8.50;99.90
19164;DHT22;9714;51.208;4.242;2022-12-26T15:21:43;8.40;99.90
19164;DHT22;9714;51.208;4.242;2022-12-26T15:28:04;8.20;99.90
19164;DHT22;9714;51.208;4.242;2022-12-26T15:30:52;8.10;99.90
19164;DHT22;9714;51.208;4.242;2022-12-26T15:33:28;8.10;99.90
19164;DHT22;9714;51.208;4.242;2022-12-26T15:36:03;8.10;99.90
19164;DHT22;9714;51.208;4.242;2022-12-26T15:38:37;8.00;99.90
19164;DHT22;9714;51.208;4.242;2022-12-26T15:41:11;8.00;99.90
19164;DHT22;9714;51.208;4.242;2022-12-26T15:43:57;8.00;99.90
19164;DHT22;9714;51.208;4.242;2022-12-26T15:46:30;7.90;99.90
19164;DHT22;9714;51.208;4.242;2022-12-26T15:49:16;7.60;99.90
19164;DHT22;9714;51.208;4.242;2022-12-26T15:51:53;7.40;99.90
19164;DHT22;9714;51.208;4.242;2022-12-26T15:54:41;7.40;99.90
19164;DHT22;9714;51.208;4.242;2022-12-26T15:57:18;7.30;99.90
19164;DHT22;9714;51.208;4.242;2022-12-26T16:00:10;7.20;99.90
19164;DHT22;9714;51.208;4.242;2022-12-26T16:02:44;7.50;99.90
19164;DHT22;9714;51.208;4.242;2022-12-26T16:05:32;7.60;99.90
19164;DHT22;9714;51.208;4.242;2022-12-26T16:08:13;7.60;99.90
19164;DHT22;9714;51.208;4.242;2022-12-26T16:10:43;7.50;99.90
19164;DHT22;9714;51.208;4.242;2022-12-26T16:13:16;7.30;99.90
19164;DHT22;9714;51.208;4.242;2022-12-26T16:15:54;7.40;99.90
19164;DHT22;9714;51.208;4.242;2022-12-26T16:18:26;7.40;99.90
19164;DHT22;9714;51.208;4.242;2022-12-26T16:20:55;7.30;99.90
19164;DHT22;9714;51.208;4.242;2022-12-26T16:23:43;7.30;99.90
19164;DHT22;9714;51.208;4.242;2022-12-26T16:26:16;7.20;99.90
19164;DHT22;9714;51.208;4.242;2022-12-26T16:28:47;7.20;99.90
19164;DHT22;9714;51.208;4.242;2022-12-26T16:31:19;7.20;99.90
19164;DHT22;9714;51.208;4.242;2022-12-26T16:33:50;7.10;99.90
19164;DHT22;9714;51.208;4.242;2022-12-26T16:36:20;7.10;99.90
19164;DHT22;9714;51.208;4.242;2022-12-26T16:38:48;7.10;99.90
19164;DHT22;9714;51.208;4.242;2022-12-26T16:41:22;7.00;99.90
19164;DHT22;9714;51.208;4.242;2022-12-26T16:43:50;7.00;99.90
19164;DHT22;9714;51.208;4.242;2022-12-26T16:46:28;7.00;99.90
19164;DHT22;9714;51.208;4.242;2022-12-26T16:48:58;6.90;99.90
19164;DHT22;9714;51.208;4.242;2022-12-26T16:51:39;6.90;99.90
19164;DHT22;9714;51.208;4.242;2022-12-26T16:54:26;6.80;99.90
19164;DHT22;9714;51.208;4.242;2022-12-26T16:57:03;6.90;99.90
19164;DHT22;9714;51.208;4.242;2022-12-26T16:59:38;6.90;99.90
19164;DHT22;9714;51.208;4.242;2022-12-26T17:02:15;6.90;99.90
19164;DHT22;9714;51.208;4.242;2022-12-26T17:04:49;6.70;99.90
19164;DHT22;9714;51.208;4.242;2022-12-26T17:07:18;6.70;99.90
19164;DHT22;9714;51.208;4.242;2022-12-26T17:09:49;6.70;99.90
19164;DHT22;9714;51.208;4.242;2022-12-26T17:12:20;6.80;99.90
19164;DHT22;9714;51.208;4.242;2022-12-26T17:14:50;6.80;99.90
19164;DHT22;9714;51.208;4.242;2022-12-26T17:17:31;6.60;99.90
19164;DHT22;9714;51.208;4.242;2022-12-26T17:20:36;6.60;99.90
19164;DHT22;9714;51.208;4.242;2022-12-26T17:23:35;6.60;99.90
19164;DHT22;9714;51.208;4.242;2022-12-26T17:26:20;6.40;99.90